Thin Layers cruise, Gulf of Maine, 24 June - 3 July 2006                                                        
                                                                       
Station CTD Cast Bottle # Date String Latitude Longitude station cast bottle sensor pressure [db] niskin pressure [db] temperature [ITS-90, deg C] conductivity [S/m] oxygen, SBE 43 [mg/l] PAR/irradiance, biospherical/licor beam transmission, chelsea/seatech/wetlab cstar [%] fluorescence, chelsea aqua 3 chl con [ug/l] oxygen, SBE, primary, 0708, 07-jan-06 Bottom Depth irradiance (PAR), primary, 4552, 011806 transmissometer, primary, CST-535DR, 02/01/06 fluorometer, chelsea, 088209, 01/16/06 depth [salt water, m], lat = 44 density [density, kg/m^3] sigma theta salinity [PSU] oxygen oxygen saturation percent oxygen saturation Chloro Phaeo NO3+NO2 Si(OH)4 NO2 PO4 NH4 Alex
    GMT degrees degrees                         (m)               (ml/L) (ml/L) (%) (ug/L) (ug/L) (mM) (mM) (mM) (mM) (mM) (Cells/L)
                                                                       
1 1                                 156.7                                    
1 2 1 6/24/06 23:44 43.414 -69.901 1 2 1 141.788 140.788 5.819 3.259 7.377 0.000 79.149 0.029 2.407 142.2 0.156 4.184 0.759 139.630 1026.726 26.726 33.102 5.162 7.039 73.340     13.21 13.94 0.11 0.66 1.06  
  2 6/24/06 23:46 43.414 -69.901 1 2 2 100.725 99.725 5.928 3.221 8.048 0.000 81.850 0.042 2.589 142.2 0.156 4.325 0.866 99.064 1026.125 26.125 32.597 5.632 7.044 79.962     9.72 7.84 0.15 0.48 0.40  
  3 6/24/06 23:47 43.414 -69.901 1 2 3 80.624 79.624 6.071 3.217 8.403 0.000 82.507 0.052 2.691 142.2 0.156 4.360 0.932 78.848 1025.871 25.871 32.417 5.880 7.028 83.665     7.64 5.04 0.11 0.38 0.59  
  4 6/24/06 23:48 43.414 -69.901 1 2 4 60.054 59.054 6.547 3.237 8.459 0.000 80.711 0.063 2.732 142.2 0.156 4.266 0.996 58.604 1025.550 25.550 32.206 5.919 6.959 85.063     8.36 6.61 0.22 0.42 0.55  
  5 6/24/06 23:49 43.414 -69.901 1 2 5 40.161 39.161 6.971 3.259 8.426 0.000 79.461 0.078 2.747 142.2 0.161 4.201 1.066 38.895 1025.288 25.288 32.059 5.896 6.897 85.495 0.26 0.14 6.83 6.79 0.39 0.34 1.13 x
  6 6/24/06 23:49 43.414 -69.901 1 2 6 30.087 29.087 7.171 3.270 8.440 0.000 79.734 0.077 2.762 142.2 0.173 4.215 1.062 28.858 1025.165 25.165 31.997 5.906 6.867 86.007 0.29 0.13 6.24 7.09 0.45 0.29 1.28 x
  7 6/24/06 23:50 43.414 -69.901 1 2 7 19.434 18.434 7.841 3.318 9.075 0.000 79.519 0.517 2.968 142.2 0.218 4.204 1.810 18.418 1024.946 24.946 31.897 6.351 6.766 93.861 2.72 0.67 3.05 3.18 0.35 0.25 0.99 x
  8 6/24/06 23:51 43.414 -69.901 1 2 8 9.717 8.717 10.355 3.504 10.694 0.000 71.506 1.534 3.560 142.2 0.526 3.786 2.274 8.845 1024.269 24.269 31.586 7.483 6.407 116.807 5.24 0.95 0.22 0.19 0.18 0.01 0.85 x
    9 6/24/06 23:51 43.414 -69.901 1 2 9 1.766 0.766 14.866 3.650 9.472 0.755 67.119 1.327 3.391 142.2 1.509 3.557 2.211 1.681 1021.634 21.634 29.321 6.628 5.906 112.237 3.59 0.61 0.09 0.03 0.12 0.01 0.73 83.34
2 3 1 6/25/06 3:41 43.787 -69.502 2 3 1 88.683 87.683 6.298 3.225 7.321 0.000 62.975 0.076 2.415 98.3 0.155 3.341 1.060 86.884 1025.783 25.783 32.294 5.123 6.996 73.231     8.06 13.94 0.28 0.09 1.50  
  2 6/25/06 3:42 43.787 -69.502 2 3 2 81.322 80.322 6.562 3.238 7.577 0.000 68.554 0.077 2.494 98.3 0.155 3.632 1.062 79.484 1025.630 25.630 32.187 5.302 6.957 76.215     7.74 15.56 0.58 0.14 2.82  
  3 6/25/06 3:43 43.787 -69.502 2 3 3 61.881 60.881 7.321 3.280 8.635 0.000 79.154 0.134 2.809 98.3 0.155 4.185 1.264 60.365 1025.250 25.250 31.945 6.042 6.846 88.265     6.03 6.60 0.41 0.01 1.01  
  4 6/25/06 3:44 43.787 -69.502 2 3 4 41.845 40.845 7.720 3.302 8.615 0.000 78.966 0.173 2.830 98.3 0.155 4.175 1.365 40.462 1025.006 25.006 31.822 6.029 6.788 88.812 0.72 0.64 3.41 5.56 0.31 0.00 1.63 x
  5 6/25/06 3:45 43.787 -69.502 2 3 5 31.268 30.268 8.273 3.335 8.549 0.000 77.439 0.443 2.838 98.3 0.156 4.095 1.747 29.958 1024.764 24.764 31.677 5.982 6.709 89.173 3.15 0.88 2.54 4.00 0.28 0.01 1.83 x
  6 6/25/06 3:45 43.787 -69.502 2 3 6 21.132 20.132 8.878 3.371 8.955 0.000 75.832 0.921 2.979 98.3 0.163 4.011 2.056 19.956 1024.502 24.502 31.516 6.266 6.624 94.602 4.98 1.65 1.88 2.38 0.27 0.01 0.76 x
  7 6/25/06 3:46 43.787 -69.502 2 3 7 10.819 9.819 10.449 3.482 10.552 0.000 78.212 0.746 3.513 98.3 0.288 4.136 1.966 9.731 1024.018 24.018 31.278 7.384 6.406 115.263 2.83 0.67 0.09 0.02 0.28 0.01 0.54 x
    8 6/25/06 3:47 43.787 -69.502 2 3 8 1.537 0.537 13.309 3.640 8.594 0.697 74.767 0.529 3.018 98.3 1.472 3.956 1.821 1.498 1022.808 22.808 30.443 6.014 6.057 99.294 1.61 0.31 0.09 0.37 0.15 0.01 0.24 240.43
3 4                                 85.0                                    
4 5 1 6/25/06 4:47 43.710 -69.467 4 5 1 110.001 109.001 6.060 3.225 7.870 0.000 68.391 0.064 2.545 113.1 0.156 3.623 0.997 108.386 1026.081 26.081 32.507 5.507 7.026 78.385     9.70 12.23 0.35 0.01 0.52  
  2 6/25/06 4:48 43.710 -69.467 4 5 2 102.283 101.283 6.123 3.225 7.894 0.000 69.243 0.058 2.556 113.1 0.156 3.668 0.966 100.437 1025.995 25.995 32.456 5.524 7.018 78.717     9.64 12.14 0.32 0.01 0.20  
  3 6/25/06 4:49 43.710 -69.467 4 5 3 82.013 81.013 6.561 3.240 7.976 0.000 73.741 0.071 2.599 113.1 0.156 3.902 1.034 80.576 1025.653 25.653 32.209 5.582 6.956 80.236     8.37 10.36 0.46 0.12 0.53  
  4 6/25/06 4:50 43.710 -69.467 4 5 4 61.267 60.267 7.333 3.280 8.713 0.000 80.322 0.127 2.832 113.1 0.156 4.246 1.245 59.793 1025.237 25.237 31.934 6.097 6.844 89.087     6.13 5.92 0.32 0.01 0.52  
  5 6/25/06 4:50 43.710 -69.467 4 5 5 40.787 39.787 7.809 3.302 8.805 0.000 79.433 0.162 2.883 113.1 0.156 4.199 1.340 39.403 1024.926 24.926 31.742 6.162 6.778 90.912 0.57 0.30 5.00 6.76 0.33 0.01 2.38 x
  6 6/25/06 4:51 43.710 -69.467 4 5 6 31.026 30.026 7.921 3.309 8.806 0.000 79.355 0.167 2.893 113.1 0.156 4.195 1.351 29.788 1024.851 24.851 31.724 6.162 6.761 91.144 0.61 0.42 4.76 6.17 0.33 0.01 1.13 x
  7 6/25/06 4:52 43.710 -69.467 4 5 7 20.427 19.427 8.470 3.348 9.229 0.000 69.483 2.557 3.037 113.1 0.159 3.680 2.492 19.233 1024.659 24.659 31.643 6.458 6.680 96.678 13.74 1.99 1.95 2.65 0.07 0.01 0.63 x
  8 6/25/06 4:52 43.710 -69.467 4 5 8 10.848 9.848 9.462 3.419 10.634 0.000 71.453 1.609 3.485 113.1 0.238 3.783 2.295 9.764 1024.356 24.356 31.505 7.441 6.538 113.816 5.51 1.01 0.09 0.73 0.08 0.02 0.43 x
    9 6/25/06 4:52 43.710 -69.467 4 5 9 1.823 0.823 14.849 3.811 8.445 0.000 75.200 0.631 3.040 113.1 0.962 3.978 1.895 1.895 1022.757 22.757 30.775 5.910 5.855 100.935 2.00 0.26 0.09 0.92 0.08 0.02 0.27 1298.18
5 6                                 113.9                                    
6 7 1 6/25/06 5:52 43.627 -69.436 6 7 1 125.406 124.406 5.827 3.229 7.614 0.000 76.636 0.044 2.468 128.9 0.156 4.053 0.880 123.413 1026.387 26.387 32.769 5.328 7.053 75.551     11.28 17.17 0.02 0.24 0.15  
  2 6/25/06 5:53 43.627 -69.436 6 7 2 101.617 100.617 5.912 3.225 7.786 0.000 78.013 0.047 2.521 128.9 0.156 4.125 0.897 100.035 1026.177 26.177 32.656 5.449 7.044 77.355     10.17 11.34 0.21 0.24 0.00  
  3 6/25/06 5:54 43.627 -69.436 6 7 3 82.034 81.034 6.401 3.237 8.274 0.000 78.724 0.061 2.671 128.9 0.156 4.162 0.982 80.345 1025.769 25.769 32.333 5.790 6.977 82.983     8.05 9.64 0.18 0.10 0.32  
  4 6/25/06 5:54 43.627 -69.436 6 7 4 61.377 60.377 7.035 3.263 8.506 0.000 78.074 0.078 2.765 128.9 0.156 4.128 1.066 59.909 1025.353 25.353 32.029 5.953 6.888 86.425     7.18 8.54 0.38 0.01 0.44  
  5 6/25/06 5:55 43.627 -69.436 6 7 5 41.246 40.246 7.474 3.285 8.698 0.000 79.142 0.128 2.840 128.9 0.156 4.184 1.250 39.900 1025.075 25.075 31.870 6.087 6.825 89.188 0.40 0.30 6.01 7.29 0.41 0.01 0.31 x
  6 6/25/06 5:59 43.627 -69.436 6 7 9 31.388 30.388 7.836 3.303 8.869 0.000 78.473 0.284 2.905 128.9 0.157 4.149 1.560 30.167 1024.877 24.877 31.739 6.206 6.774 91.624 1.66 0.72 3.90 4.31 0.38 0.01 0.52 x
  7 6/25/06 5:56 43.627 -69.436 6 7 6 20.390 19.390 8.310 3.328 9.027 0.000 75.576 0.943 2.973 128.9 0.160 3.998 2.063 19.205 1024.634 24.634 31.581 6.317 6.707 94.180 4.47 1.76 4.42 9.16 0.38 0.01 0.49 x
  8 6/25/06 5:57 43.627 -69.436 6 7 7 9.762 8.762 11.010 3.561 10.569 0.000 67.819 1.503 3.562 128.9 0.289 3.593 2.260 8.681 1024.148 24.148 31.577 7.396 6.316 117.096 4.39 0.90 0.09 0.17 0.13 0.01 0.95 x
    9 6/25/06 5:57 43.627 -69.436 6 7 8 1.466 0.466 14.159 3.768 9.521 0.139 76.909 0.542 3.401 128.9 1.244 4.068 1.831 1.604 1023.023 23.023 30.936 6.662 5.933 112.300 2.00 0.38 0.12 0.38 0.12 0.01 1.30 340.46
7 8                                 92.2                                    
8 9 1 6/25/06 7:35 43.659 -69.216 8 9 1 126.008 125.008 6.109 3.238 7.918 0.000 72.733 0.046 2.557 135.6 0.156 3.850 0.891 123.985 1026.221 26.221 32.601 5.541 7.013 79.009     9.48 10.74 0.17 0.13 0.45  
  2 6/25/06 7:36 43.659 -69.216 8 9 2 102.657 101.657 6.288 3.243 8.068 0.000 79.496 0.055 2.608 135.6 0.156 4.203 0.950 101.052 1026.010 26.010 32.497 5.646 6.988 80.790     8.56 8.58 0.11 0.01 0.01  
  3 6/25/06 7:37 43.659 -69.216 8 9 3 82.036 81.036 6.646 3.262 8.211 0.000 80.565 0.073 2.666 135.6 0.157 4.258 1.042 80.637 1025.774 25.774 32.376 5.746 6.935 82.857     8.48 7.88 0.16 0.10 0.08  
  4 6/25/06 7:38 43.659 -69.216 8 9 4 61.214 60.214 7.314 3.307 8.383 0.000 81.269 0.108 2.747 135.6 0.156 4.295 1.184 59.733 1025.487 25.487 32.249 5.866 6.833 85.844     7.68 6.50 0.25 0.01 0.08  
  5 6/25/06 7:39 43.659 -69.216 8 9 5 40.340 39.340 7.297 3.299 8.430 0.000 81.248 0.110 2.764 135.6 0.156 4.294 1.192 39.103 1025.342 25.342 32.183 5.899 6.839 86.263 0.30 0.21 7.62 6.48 0.24 0.01 0.22 x
  6 6/25/06 7:39 43.659 -69.216 8 9 6 30.321 29.321 7.423 3.293 8.642 0.000 80.751 0.160 2.829 135.6 0.157 4.268 1.334 29.036 1025.138 25.138 32.005 6.048 6.827 88.589 0.44 0.26 6.87 6.30 0.39 0.01 0.25 x
  7 6/25/06 7:40 43.659 -69.216 8 9 7 20.604 19.604 7.898 3.324 8.723 0.000 79.365 0.307 2.877 135.6 0.160 4.196 1.595 19.469 1024.954 24.954 31.912 6.104 6.756 90.343 1.04 0.43 6.18 11.10 0.33 0.01 0.01 x
  8 6/25/06 7:40 43.659 -69.216 8 9 8 10.314 9.314 9.631 3.432 9.460 0.000 67.782 3.169 3.165 135.6 0.253 3.591 2.587 9.261 1024.309 24.309 31.483 6.620 6.514 101.616 10.22 1.30 2.72 2.89 0.22 0.00 0.01 x
    9 6/25/06 7:41 43.659 -69.216 8 9 9 1.487 0.487 12.273 3.653 9.539 0.180 75.142 0.629 3.294 135.6 1.267 3.975 1.894 1.483 1023.754 23.754 31.404 6.675 6.153 108.482 2.05 0.39 0.09 0.64 0.11 0.02 0.02 1602.80
9 10                                 109.0                                    
10 11 1 6/25/06 9:18 43.690 -68.989 10 11 1 76.150 75.150 6.972 3.280 8.237 0.000 74.494 0.100 2.689 109.0 0.155 3.942 1.156 74.526 1025.613 25.613 32.264 5.764 6.887 83.691     7.81 8.32 0.34 0.01 0.01  
  2 6/25/06 9:18 43.690 -68.989 10 11 2 61.129 60.129 7.217 3.289 8.442 0.000 79.924 0.104 2.758 109.0 0.155 4.225 1.172 59.620 1025.411 25.411 32.136 5.907 6.854 86.193     7.34 8.64 0.29 0.01 0.29  
  3 6/25/06 9:19 43.690 -68.989 10 11 3 40.708 39.708 7.729 3.307 8.659 0.000 79.707 0.184 2.842 109.0 0.157 4.214 1.390 39.404 1025.041 25.041 31.874 6.059 6.784 89.312 0.68 0.23 6.69 6.32 0.33 0.01 0.71 x
  4 6/25/06 9:20 43.690 -68.989 10 11 4 30.178 29.178 7.919 3.310 8.932 0.000 78.375 0.472 2.929 109.0 0.162 4.144 1.773 28.942 1024.859 24.859 31.739 6.251 6.761 92.454 2.43 0.60 5.03 5.44 0.22 0.01 0.82 x
  5 6/25/06 9:20 43.690 -68.989 10 11 5 20.550 19.550 8.482 3.338 9.102 0.000 74.922 1.057 3.004 109.0 0.197 3.964 2.115 19.421 1024.564 24.564 31.523 6.369 6.683 95.300 5.22 1.12 4.24 3.73 0.23 0.01 0.71 x
  6 6/25/06 9:21 43.690 -68.989 10 11 6 10.358 9.358 9.627 3.405 9.772 0.000 72.135 1.701 3.245 109.0 0.640 3.819 2.319 9.339 1024.104 24.104 31.219 6.838 6.526 104.786 8.87 1.42 0.48 0.97 0.11 0.02 0.83 x
    7 6/25/06 9:21 43.690 -68.989 10 11 7 1.250 0.250 12.079 3.557 10.785 3.416 77.484 0.538 3.511 109.0 1.993 4.098 1.829 0.557 1023.203 23.203 30.652 7.547 6.208 121.573 2.59 0.54 0.09 0.03 0.07 0.02 0.61 1299.89
11 12                                 84.0                                    
12 13 1 6/25/06 10:49 43.721 -68.761 12 13 1 100.934 99.934 6.759 3.297 7.707 0.000 75.057 0.060 2.537 102.0 0.155 3.971 0.979 99.054 1026.052 26.052 32.640 5.394 6.905 78.114     9.16 9.54 0.18 0.01 0.18  
  2 6/25/06 10:51 43.721 -68.761 12 13 2 80.977 79.977 6.768 3.276 8.016 0.000 78.560 0.061 2.621 102.0 0.156 4.154 0.983 79.286 1025.780 25.780 32.412 5.610 6.913 81.140     8.63 8.01 0.19 0.01 0.01  
  3 6/25/06 10:52 43.721 -68.761 12 13 3 60.106 59.106 7.070 3.274 8.486 0.000 81.103 0.108 2.762 102.0 0.159 4.286 1.184 58.675 1025.412 25.412 32.117 5.938 6.878 86.335     7.38 6.66 0.33 0.01 0.75  
  4 6/25/06 10:53 43.721 -68.761 12 13 4 40.502 39.502 7.508 3.293 8.805 0.000 81.332 0.206 2.872 102.0 0.185 4.298 1.435 39.146 1025.107 25.107 31.920 6.162 6.817 90.387 0.65 0.37 5.96 5.13 0.32 0.01 1.36 x
  5 6/25/06 10:53 43.721 -68.761 12 13 5 31.109 30.109 7.688 3.299 8.813 0.000 80.368 0.228 2.884 102.0 0.241 4.248 1.473 30.131 1024.968 24.968 31.830 6.167 6.793 90.789 0.74 0.34 6.05 5.47 0.38 0.01 0.49 x
  6 6/25/06 10:54 43.721 -68.761 12 13 6 20.156 19.156 8.226 3.325 8.975 0.000 77.803 0.566 2.956 102.0 0.483 4.114 1.850 19.053 1024.674 24.674 31.617 6.280 6.719 93.475 2.15 0.43 5.20 4.55 0.33 0.01 2.04 x
  7 6/25/06 10:54 43.721 -68.761 12 13 7 10.441 9.441 9.874 3.453 9.633 0.167 72.475 1.724 3.225 102.0 1.264 3.836 2.324 9.244 1024.275 24.275 31.489 6.741 6.479 104.042 5.94 0.98 2.15 2.63 0.26 0.01 0.91 x
    8 6/25/06 10:55 43.721 -68.761 12 13 8 1.606 0.606 12.563 3.614 10.169 24.458 68.245 1.468 3.456 102.0 2.789 3.616 2.255 0.810 1023.226 23.226 30.797 7.116 6.139 115.917 5.34 0.77 0.09 0.17 0.16 0.02 0.62 2678.42
13 14                                 117.0                                    
14 15 1 6/25/06 12:36 43.811 -68.569 14 15 1 122.175 121.175 6.705 3.322 7.238 0.000 78.305 0.051 2.410 124.0 0.156 4.140 0.924 120.269 1026.410 26.410 32.961 5.065 6.899 73.419     11.17 11.84 0.23 0.01 0.10  
  2 6/25/06 12:37 43.811 -68.569 14 15 2 101.270 100.270 6.652 3.304 7.428 0.000 77.652 0.046 2.461 124.0 0.156 4.106 0.889 99.453 1026.212 26.212 32.824 5.198 6.914 75.181     10.71 10.44 0.31 0.01 0.06  
  3 6/25/06 12:38 43.811 -68.569 14 15 3 80.912 79.912 6.922 3.287 7.978 0.000 79.742 0.071 2.618 124.0 0.157 4.215 1.035 79.486 1025.742 25.742 32.390 5.583 6.890 81.034     9.03 8.28 0.35 0.01 0.02  
  4 6/25/06 12:39 43.811 -68.569 14 15 4 60.718 59.718 7.581 3.329 8.464 0.000 81.258 0.131 2.782 124.0 0.163 4.294 1.258 59.268 1025.439 25.439 32.238 5.923 6.792 87.205     5.97 5.89 0.39 0.01 0.30  
  5 6/25/06 12:41 43.811 -68.569 14 15 5 40.050 39.050 7.894 3.339 8.778 0.000 80.330 0.291 2.885 124.0 0.255 4.246 1.573 38.726 1025.160 25.160 32.060 6.143 6.751 90.997 1.05 0.39 2.61 5.70 0.03 0.56 0.88 x
  6 6/25/06 12:41 43.811 -68.569 14 15 6 30.555 29.555 7.968 3.338 8.804 0.000 80.255 0.306 2.898 124.0 0.424 4.242 1.594 29.308 1025.047 25.047 31.985 6.161 6.742 91.372 1.01 0.41 NaN 3.09 0.08 0.45 0.26 x
  7 6/25/06 12:42 43.811 -68.569 14 15 7 20.091 19.091 8.481 3.371 8.960 0.000 79.558 0.508 2.968 124.0 0.722 4.206 1.805 19.046 1024.840 24.840 31.877 6.270 6.668 94.029 1.76 0.57 2.90 3.98 0.08 0.01 0.24 x
  8 6/25/06 12:43 43.811 -68.569 14 15 8 9.565 8.565 9.386 3.404 9.459 2.067 67.275 2.799 3.148 124.0 1.813 3.565 2.533 8.455 1024.293 24.293 31.417 6.619 6.553 101.010 11.42 1.19 1.61 1.68 0.08 0.02 0.34 x
    9 6/25/06 12:44 43.811 -68.569 14 15 9 2.209 1.209 11.674 3.547 10.489 29.316 74.551 0.831 3.564 124.0 2.845 3.945 2.011 1.437 1023.462 23.462 30.887 7.340 6.253 117.379 4.30 0.85 0.09 0.13 0.08 0.01 0.64 1820.56
15 16                                 132.0                                    
16 17 1 6/25/06 14:29 43.901 -68.377 16 17 1 114.939 113.939 6.909 3.354 6.898 0.000 73.992 0.053 2.331 117.0 0.156 3.915 0.940 113.014 1026.468 26.468 33.112 4.827 6.859 70.370     9.82 11.98 0.19 0.01 0.01  
  2 6/25/06 14:30 43.901 -68.377 16 17 2 101.859 100.859 7.128 3.363 7.086 0.000 77.137 0.080 2.392 117.0 0.156 4.079 1.078 99.975 1026.293 26.293 33.005 4.959 6.829 72.613     10.14 10.55 0.08 0.37 0.01  
  3 6/25/06 14:31 43.901 -68.377 16 17 3 80.736 79.736 7.381 3.355 7.689 0.000 78.699 0.116 2.566 117.0 0.160 4.161 1.211 79.111 1025.917 25.917 32.694 5.381 6.803 79.095     8.67 8.52 0.13 0.29 0.11  
  4 6/25/06 14:32 43.901 -68.377 16 17 4 60.548 59.548 7.563 3.358 8.093 0.000 80.153 0.154 2.686 117.0 0.207 4.237 1.319 59.081 1025.698 25.698 32.566 5.663 6.780 83.530     7.09 6.47 0.11 0.30 0.01  
  5 6/25/06 14:33 43.901 -68.377 16 17 5 40.378 39.378 7.703 3.338 8.452 0.000 81.513 0.221 2.790 117.0 0.486 4.308 1.462 39.100 1025.324 25.324 32.233 5.915 6.773 87.330 0.58 0.31 6.22 5.71 0.03 0.37 0.01 x
  6 6/25/06 14:34 43.901 -68.377 16 17 6 29.895 28.895 8.015 3.363 8.571 0.000 80.988 0.306 2.841 117.0 0.822 4.280 1.594 28.679 1025.217 25.217 32.214 5.998 6.725 89.185 0.86 0.37 4.93 4.90 0.10 0.21 0.13 x
  7 6/25/06 14:34 43.901 -68.377 16 17 7 19.974